sensor_id;sensor_type;location;lat;lon;timestamp;temperature;humidity
44431;DHT22;30135;47.866;-4.222;2023-04-25T00:01:21;11.00;84.30
44431;DHT22;30135;47.866;-4.222;2023-04-25T00:03:50;11.00;84.40
44431;DHT22;30135;47.866;-4.222;2023-04-25T00:06:16;11.00;84.40
44431;DHT22;30135;47.866;-4.222;2023-04-25T00:08:52;11.00;84.40
44431;DHT22;30135;47.866;-4.222;2023-04-25T00:11:19;11.00;84.50
44431;DHT22;30135;47.866;-4.222;2023-04-25T00:13:45;10.90;84.40
44431;DHT22;30135;47.866;-4.222;2023-04-25T00:16:12;10.90;84.40
44431;DHT22;30135;47.866;-4.222;2023-04-25T00:18:41;10.90;84.50
44431;DHT22;30135;47.866;-4.222;2023-04-25T00:21:08;10.90;84.60
44431;DHT22;30135;47.866;-4.222;2023-04-25T00:23:34;10.90;84.60
44431;DHT22;30135;47.866;-4.222;2023-04-25T00:26:02;10.80;84.60
44431;DHT22;30135;47.866;-4.222;2023-04-25T00:28:28;10.80;84.70
44431;DHT22;30135;47.866;-4.222;2023-04-25T00:30:54;10.80;84.70
44431;DHT22;30135;47.866;-4.222;2023-04-25T00:33:20;10.70;84.70
44431;DHT22;30135;47.866;-4.222;2023-04-25T00:35:46;10.70;84.80
44431;DHT22;30135;47.866;-4.222;2023-04-25T00:38:12;10.70;84.90
44431;DHT22;30135;47.866;-4.222;2023-04-25T00:40:38;10.70;84.80
44431;DHT22;30135;47.866;-4.222;2023-04-25T00:43:04;10.70;84.80
44431;DHT22;30135;47.866;-4.222;2023-04-25T00:45:33;10.70;84.90
44431;DHT22;30135;47.866;-4.222;2023-04-25T00:48:04;10.60;84.90
44431;DHT22;30135;47.866;-4.222;2023-04-25T00:50:32;10.60;85.00
44431;DHT22;30135;47.866;-4.222;2023-04-25T00:52:59;10.60;86.00
44431;DHT22;30135;47.866;-4.222;2023-04-25T00:55:26;10.60;85.30
44431;DHT22;30135;47.866;-4.222;2023-04-25T00:57:52;10.60;85.30
44431;DHT22;30135;47.866;-4.222;2023-04-25T01:00:18;10.60;85.30
44431;DHT22;30135;47.866;-4.222;2023-04-25T01:02:45;10.60;85.50
44431;DHT22;30135;47.866;-4.222;2023-04-25T01:05:12;10.50;85.50
44431;DHT22;30135;47.866;-4.222;2023-04-25T01:07:39;10.50;85.60
44431;DHT22;30135;47.866;-4.222;2023-04-25T01:10:06;10.60;85.60
44431;DHT22;30135;47.866;-4.222;2023-04-25T01:12:35;10.50;85.50
44431;DHT22;30135;47.866;-4.222;2023-04-25T01:15:02;10.50;85.40
44431;DHT22;30135;47.866;-4.222;2023-04-25T01:17:28;10.50;85.40
44431;DHT22;30135;47.866;-4.222;2023-04-25T01:19:54;10.50;85.40
44431;DHT22;30135;47.866;-4.222;2023-04-25T01:22:21;10.50;85.40
44431;DHT22;30135;47.866;-4.222;2023-04-25T01:24:47;10.40;85.40
44431;DHT22;30135;47.866;-4.222;2023-04-25T01:27:15;10.40;85.40
44431;DHT22;30135;47.866;-4.222;2023-04-25T01:29:41;10.40;85.40
44431;DHT22;30135;47.866;-4.222;2023-04-25T01:32:08;10.40;85.30
44431;DHT22;30135;47.866;-4.222;2023-04-25T01:34:35;10.30;85.20
44431;DHT22;30135;47.866;-4.222;2023-04-25T01:37:00;10.30;85.10
44431;DHT22;30135;47.866;-4.222;2023-04-25T01:39:27;10.20;85.10
44431;DHT22;30135;47.866;-4.222;2023-04-25T01:41:53;10.20;85.10
44431;DHT22;30135;47.866;-4.222;2023-04-25T01:44:19;10.20;85.20
44431;DHT22;30135;47.866;-4.222;2023-04-25T01:46:45;10.10;85.20
44431;DHT22;30135;47.866;-4.222;2023-04-25T01:49:12;10.10;85.30
44431;DHT22;30135;47.866;-4.222;2023-04-25T01:51:41;10.00;85.40
44431;DHT22;30135;47.866;-4.222;2023-04-25T01:54:21;10.00;85.50
44431;DHT22;30135;47.866;-4.222;2023-04-25T01:56:57;10.00;85.60
44431;DHT22;30135;47.866;-4.222;2023-04-25T01:59:26;10.00;85.60
44431;DHT22;30135;47.866;-4.222;2023-04-25T02:01:52;10.00;85.70
44431;DHT22;30135;47.866;-4.222;2023-04-25T02:04:20;10.00;85.80
44431;DHT22;30135;47.866;-4.222;2023-04-25T02:06:46;10.00;85.80
44431;DHT22;30135;47.866;-4.222;2023-04-25T02:09:12;9.90;85.80
44431;DHT22;30135;47.866;-4.222;2023-04-25T02:11:38;9.90;86.60
44431;DHT22;30135;47.866;-4.222;2023-04-25T02:14:04;9.90;85.80
44431;DHT22;30135;47.866;-4.222;2023-04-25T02:16:30;9.90;85.90
44431;DHT22;30135;47.866;-4.222;2023-04-25T02:18:58;9.90;85.90
44431;DHT22;30135;47.866;-4.222;2023-04-25T02:21:24;9.90;86.00
44431;DHT22;30135;47.866;-4.222;2023-04-25T02:23:52;9.90;86.00
44431;DHT22;30135;47.866;-4.222;2023-04-25T02:26:18;9.90;86.10
44431;DHT22;30135;47.866;-4.222;2023-04-25T02:28:44;9.80;86.00
44431;DHT22;30135;47.866;-4.222;2023-04-25T02:31:10;9.80;86.00
44431;DHT22;30135;47.866;-4.222;2023-04-25T02:33:36;9.80;86.00
44431;DHT22;30135;47.866;-4.222;2023-04-25T02:36:02;9.80;86.00
44431;DHT22;30135;47.866;-4.222;2023-04-25T02:38:28;9.70;86.00
44431;DHT22;30135;47.866;-4.222;2023-04-25T02:40:54;9.70;85.90
44431;DHT22;30135;47.866;-4.222;2023-04-25T02:43:20;9.70;86.00
44431;DHT22;30135;47.866;-4.222;2023-04-25T02:45:47;9.70;86.00
44431;DHT22;30135;47.866;-4.222;2023-04-25T02:48:13;9.60;86.00
44431;DHT22;30135;47.866;-4.222;2023-04-25T02:50:39;9.60;86.00
44431;DHT22;30135;47.866;-4.222;2023-04-25T02:53:05;9.60;86.10
44431;DHT22;30135;47.866;-4.222;2023-04-25T02:55:31;9.60;86.10
44431;DHT22;30135;47.866;-4.222;2023-04-25T02:57:57;9.60;86.20
44431;DHT22;30135;47.866;-4.222;2023-04-25T03:00:23;9.60;86.20
44431;DHT22;30135;47.866;-4.222;2023-04-25T03:02:49;9.50;86.20
44431;DHT22;30135;47.866;-4.222;2023-04-25T03:05:16;9.50;86.20
44431;DHT22;30135;47.866;-4.222;2023-04-25T03:07:45;9.50;86.30
44431;DHT22;30135;47.866;-4.222;2023-04-25T03:10:11;9.50;86.30
44431;DHT22;30135;47.866;-4.222;2023-04-25T03:12:37;9.50;86.40
44431;DHT22;30135;47.866;-4.222;2023-04-25T03:15:03;9.50;86.40
44431;DHT22;30135;47.866;-4.222;2023-04-25T03:17:30;9.40;86.30
44431;DHT22;30135;47.866;-4.222;2023-04-25T03:19:57;9.50;86.50
44431;DHT22;30135;47.866;-4.222;2023-04-25T03:22:23;9.40;86.40
44431;DHT22;30135;47.866;-4.222;2023-04-25T03:24:50;9.40;86.50
44431;DHT22;30135;47.866;-4.222;2023-04-25T03:27:16;9.40;86.50
44431;DHT22;30135;47.866;-4.222;2023-04-25T03:29:42;9.40;86.60
44431;DHT22;30135;47.866;-4.222;2023-04-25T03:32:09;9.40;86.70
44431;DHT22;30135;47.866;-4.222;2023-04-25T03:34:35;9.40;86.70
44431;DHT22;30135;47.866;-4.222;2023-04-25T03:37:01;9.40;86.80
44431;DHT22;30135;47.866;-4.222;2023-04-25T03:39:26;9.40;86.90
44431;DHT22;30135;47.866;-4.222;2023-04-25T03:41:52;9.40;86.90
44431;DHT22;30135;47.866;-4.222;2023-04-25T03:44:18;9.40;86.80
44431;DHT22;30135;47.866;-4.222;2023-04-25T03:46:44;9.40;86.80
44431;DHT22;30135;47.866;-4.222;2023-04-25T03:49:10;9.40;86.70
44431;DHT22;30135;47.866;-4.222;2023-04-25T03:51:36;9.40;86.80
44431;DHT22;30135;47.866;-4.222;2023-04-25T03:54:02;9.30;86.80
44431;DHT22;30135;47.866;-4.222;2023-04-25T03:56:29;9.30;86.90
44431;DHT22;30135;47.866;-4.222;2023-04-25T03:58:55;9.30;87.00
44431;DHT22;30135;47.866;-4.222;2023-04-25T04:01:21;9.30;87.10
44431;DHT22;30135;47.866;-4.222;2023-04-25T04:03:48;9.30;87.20
44431;DHT22;30135;47.866;-4.222;2023-04-25T04:06:13;9.30;87.30
44431;DHT22;30135;47.866;-4.222;2023-04-25T04:08:40;9.30;87.40
44431;DHT22;30135;47.866;-4.222;2023-04-25T04:11:06;9.30;87.50
44431;DHT22;30135;47.866;-4.222;2023-04-25T04:13:32;9.30;87.60
44431;DHT22;30135;47.866;-4.222;2023-04-25T04:16:04;9.30;87.70
44431;DHT22;30135;47.866;-4.222;2023-04-25T04:18:30;9.30;87.90
44431;DHT22;30135;47.866;-4.222;2023-04-25T04:20:56;9.30;87.90
44431;DHT22;30135;47.866;-4.222;2023-04-25T04:23:23;9.40;88.00
44431;DHT22;30135;47.866;-4.222;2023-04-25T04:25:49;9.40;88.00
44431;DHT22;30135;47.866;-4.222;2023-04-25T04:28:17;9.40;88.00
44431;DHT22;30135;47.866;-4.222;2023-04-25T04:30:44;9.40;88.00
44431;DHT22;30135;47.866;-4.222;2023-04-25T04:33:13;9.40;88.00
44431;DHT22;30135;47.866;-4.222;2023-04-25T04:35:41;9.40;88.00
44431;DHT22;30135;47.866;-4.222;2023-04-25T04:38:07;9.40;88.00
44431;DHT22;30135;47.866;-4.222;2023-04-25T04:40:33;9.40;88.00
44431;DHT22;30135;47.866;-4.222;2023-04-25T04:43:00;9.40;88.10
44431;DHT22;30135;47.866;-4.222;2023-04-25T04:45:26;9.40;88.20
44431;DHT22;30135;47.866;-4.222;2023-04-25T04:47:53;9.40;88.20
44431;DHT22;30135;47.866;-4.222;2023-04-25T04:50:21;9.40;88.20
44431;DHT22;30135;47.866;-4.222;2023-04-25T04:52:46;9.40;88.30
44431;DHT22;30135;47.866;-4.222;2023-04-25T04:55:12;9.40;88.40
44431;DHT22;30135;47.866;-4.222;2023-04-25T04:57:38;9.40;88.50
44431;DHT22;30135;47.866;-4.222;2023-04-25T05:00:05;9.40;88.60
44431;DHT22;30135;47.866;-4.222;2023-04-25T05:02:37;9.40;88.70
44431;DHT22;30135;47.866;-4.222;2023-04-25T05:05:05;9.40;88.90
44431;DHT22;30135;47.866;-4.222;2023-04-25T05:07:31;9.40;88.90
44431;DHT22;30135;47.866;-4.222;2023-04-25T05:09:57;9.40;89.00
44431;DHT22;30135;47.866;-4.222;2023-04-25T05:12:23;9.40;89.00
44431;DHT22;30135;47.866;-4.222;2023-04-25T05:14:49;9.40;89.00
44431;DHT22;30135;47.866;-4.222;2023-04-25T05:17:15;9.40;89.00
44431;DHT22;30135;47.866;-4.222;2023-04-25T05:19:41;9.50;89.10
44431;DHT22;30135;47.866;-4.222;2023-04-25T05:22:07;9.50;89.10
44431;DHT22;30135;47.866;-4.222;2023-04-25T05:24:33;9.40;89.00
44431;DHT22;30135;47.866;-4.222;2023-04-25T05:26:59;9.50;89.20
44431;DHT22;30135;47.866;-4.222;2023-04-25T05:29:25;9.50;89.30
44431;DHT22;30135;47.866;-4.222;2023-04-25T05:31:51;9.50;89.30
44431;DHT22;30135;47.866;-4.222;2023-04-25T05:34:17;9.50;89.30
44431;DHT22;30135;47.866;-4.222;2023-04-25T05:36:43;9.50;89.40
44431;DHT22;30135;47.866;-4.222;2023-04-25T05:39:09;9.40;89.50
44431;DHT22;30135;47.866;-4.222;2023-04-25T05:41:35;9.50;89.70
44431;DHT22;30135;47.866;-4.222;2023-04-25T05:44:05;9.50;89.70
44431;DHT22;30135;47.866;-4.222;2023-04-25T05:46:31;9.50;89.80
44431;DHT22;30135;47.866;-4.222;2023-04-25T05:49:03;9.50;89.80
44431;DHT22;30135;47.866;-4.222;2023-04-25T05:51:29;9.50;89.80
44431;DHT22;30135;47.866;-4.222;2023-04-25T05:53:55;9.50;89.60
44431;DHT22;30135;47.866;-4.222;2023-04-25T05:56:21;9.50;89.60
44431;DHT22;30135;47.866;-4.222;2023-04-25T05:58:47;9.50;89.70
44431;DHT22;30135;47.866;-4.222;2023-04-25T06:01:13;9.50;89.80
44431;DHT22;30135;47.866;-4.222;2023-04-25T06:03:39;9.50;89.90
44431;DHT22;30135;47.866;-4.222;2023-04-25T06:06:08;9.50;90.00
44431;DHT22;30135;47.866;-4.222;2023-04-25T06:08:35;9.50;90.00
44431;DHT22;30135;47.866;-4.222;2023-04-25T06:11:01;9.50;90.00
44431;DHT22;30135;47.866;-4.222;2023-04-25T06:13:27;9.50;90.10
44431;DHT22;30135;47.866;-4.222;2023-04-25T06:15:53;9.60;90.20
44431;DHT22;30135;47.866;-4.222;2023-04-25T06:18:19;9.60;90.20
44431;DHT22;30135;47.866;-4.222;2023-04-25T06:20:44;9.60;90.20
44431;DHT22;30135;47.866;-4.222;2023-04-25T06:23:11;9.60;90.20
44431;DHT22;30135;47.866;-4.222;2023-04-25T06:25:37;9.60;90.20
44431;DHT22;30135;47.866;-4.222;2023-04-25T06:28:03;9.70;90.20
44431;DHT22;30135;47.866;-4.222;2023-04-25T06:30:29;9.70;90.20
44431;DHT22;30135;47.866;-4.222;2023-04-25T06:32:55;9.70;90.20
44431;DHT22;30135;47.866;-4.222;2023-04-25T06:35:21;9.70;90.20
44431;DHT22;30135;47.866;-4.222;2023-04-25T06:37:47;9.70;90.20
44431;DHT22;30135;47.866;-4.222;2023-04-25T06:40:13;9.70;90.30
44431;DHT22;30135;47.866;-4.222;2023-04-25T06:42:39;9.70;90.30
44431;DHT22;30135;47.866;-4.222;2023-04-25T06:45:05;9.80;90.40
44431;DHT22;30135;47.866;-4.222;2023-04-25T06:47:32;9.80;90.40
44431;DHT22;30135;47.866;-4.222;2023-04-25T06:49:58;9.80;90.40
44431;DHT22;30135;47.866;-4.222;2023-04-25T06:52:26;9.80;90.40
44431;DHT22;30135;47.866;-4.222;2023-04-25T06:54:52;9.80;90.40
44431;DHT22;30135;47.866;-4.222;2023-04-25T06:57:18;9.80;90.50
44431;DHT22;30135;47.866;-4.222;2023-04-25T06:59:44;9.90;90.50
44431;DHT22;30135;47.866;-4.222;2023-04-25T07:02:10;9.90;90.50
44431;DHT22;30135;47.866;-4.222;2023-04-25T07:04:36;9.90;90.60
44431;DHT22;30135;47.866;-4.222;2023-04-25T07:07:02;9.90;90.70
44431;DHT22;30135;47.866;-4.222;2023-04-25T07:09:29;10.00;90.70
44431;DHT22;30135;47.866;-4.222;2023-04-25T07:11:55;10.00;90.80
44431;DHT22;30135;47.866;-4.222;2023-04-25T07:14:22;10.00;90.80
44431;DHT22;30135;47.866;-4.222;2023-04-25T07:16:48;10.00;90.80
44431;DHT22;30135;47.866;-4.222;2023-04-25T07:19:15;10.10;90.90
44431;DHT22;30135;47.866;-4.222;2023-04-25T07:21:40;10.10;91.00
44431;DHT22;30135;47.866;-4.222;2023-04-25T07:24:06;10.10;91.00
44431;DHT22;30135;47.866;-4.222;2023-04-25T07:26:32;10.20;91.10
44431;DHT22;30135;47.866;-4.222;2023-04-25T07:29:01;10.20;91.10
44431;DHT22;30135;47.866;-4.222;2023-04-25T07:31:27;10.20;91.20
44431;DHT22;30135;47.866;-4.222;2023-04-25T07:33:56;10.30;91.40
44431;DHT22;30135;47.866;-4.222;2023-04-25T07:36:22;10.30;91.40
44431;DHT22;30135;47.866;-4.222;2023-04-25T07:38:48;10.30;91.50
44431;DHT22;30135;47.866;-4.222;2023-04-25T07:41:14;10.40;91.70
44431;DHT22;30135;47.866;-4.222;2023-04-25T07:43:40;10.40;91.70
44431;DHT22;30135;47.866;-4.222;2023-04-25T07:46:06;10.50;91.90
44431;DHT22;30135;47.866;-4.222;2023-04-25T07:48:32;10.50;91.90
44431;DHT22;30135;47.866;-4.222;2023-04-25T07:50:58;10.60;92.10
44431;DHT22;30135;47.866;-4.222;2023-04-25T07:53:24;10.70;92.20
44431;DHT22;30135;47.866;-4.222;2023-04-25T07:55:51;10.70;92.30
44431;DHT22;30135;47.866;-4.222;2023-04-25T07:58:17;10.80;92.30
44431;DHT22;30135;47.866;-4.222;2023-04-25T08:00:47;10.90;92.30
44431;DHT22;30135;47.866;-4.222;2023-04-25T08:03:13;10.90;92.40
44431;DHT22;30135;47.866;-4.222;2023-04-25T08:05:39;11.00;92.40
44431;DHT22;30135;47.866;-4.222;2023-04-25T08:08:05;11.00;92.40
44431;DHT22;30135;47.866;-4.222;2023-04-25T08:10:32;11.10;92.40
44431;DHT22;30135;47.866;-4.222;2023-04-25T08:12:59;11.10;92.50
44431;DHT22;30135;47.866;-4.222;2023-04-25T08:15:25;11.20;92.30
44431;DHT22;30135;47.866;-4.222;2023-04-25T08:17:51;11.30;92.30
44431;DHT22;30135;47.866;-4.222;2023-04-25T08:20:17;11.30;92.40
44431;DHT22;30135;47.866;-4.222;2023-04-25T08:22:43;11.40;92.40
44431;DHT22;30135;47.866;-4.222;2023-04-25T08:25:10;11.40;92.30
44431;DHT22;30135;47.866;-4.222;2023-04-25T08:27:36;11.50;92.20
44431;DHT22;30135;47.866;-4.222;2023-04-25T08:30:03;11.50;92.10
44431;DHT22;30135;47.866;-4.222;2023-04-25T08:32:29;11.50;92.30
44431;DHT22;30135;47.866;-4.222;2023-04-25T08:34:55;11.60;92.10
44431;DHT22;30135;47.866;-4.222;2023-04-25T08:37:21;11.60;91.90
44431;DHT22;30135;47.866;-4.222;2023-04-25T08:39:47;11.60;91.90
44431;DHT22;30135;47.866;-4.222;2023-04-25T08:42:14;11.60;91.80
44431;DHT22;30135;47.866;-4.222;2023-04-25T08:44:41;11.70;91.60
44431;DHT22;30135;47.866;-4.222;2023-04-25T08:47:07;11.70;91.60
44431;DHT22;30135;47.866;-4.222;2023-04-25T08:49:33;11.70;91.40
44431;DHT22;30135;47.866;-4.222;2023-04-25T08:52:01;11.80;91.20
44431;DHT22;30135;47.866;-4.222;2023-04-25T08:54:31;11.80;91.00
44431;DHT22;30135;47.866;-4.222;2023-04-25T08:57:00;11.80;91.00
44431;DHT22;30135;47.866;-4.222;2023-04-25T08:59:30;11.90;90.80
44431;DHT22;30135;47.866;-4.222;2023-04-25T09:01:57;11.90;90.80
44431;DHT22;30135;47.866;-4.222;2023-04-25T09:04:23;11.90;90.60
44431;DHT22;30135;47.866;-4.222;2023-04-25T09:06:50;11.90;90.60
44431;DHT22;30135;47.866;-4.222;2023-04-25T09:09:16;11.90;90.60
44431;DHT22;30135;47.866;-4.222;2023-04-25T09:11:42;11.90;90.50
44431;DHT22;30135;47.866;-4.222;2023-04-25T09:14:19;12.00;90.40
44431;DHT22;30135;47.866;-4.222;2023-04-25T09:17:04;12.00;90.30
44431;DHT22;30135;47.866;-4.222;2023-04-25T09:19:35;12.00;90.00
44431;DHT22;30135;47.866;-4.222;2023-04-25T09:22:04;12.00;89.70
44431;DHT22;30135;47.866;-4.222;2023-04-25T09:27:08;12.00;89.40
44431;DHT22;30135;47.866;-4.222;2023-04-25T09:29:37;12.00;89.20
44431;DHT22;30135;47.866;-4.222;2023-04-25T09:32:23;12.00;89.00
44431;DHT22;30135;47.866;-4.222;2023-04-25T09:34:54;12.10;89.40
44431;DHT22;30135;47.866;-4.222;2023-04-25T09:37:29;12.20;89.20
44431;DHT22;30135;47.866;-4.222;2023-04-25T09:39:57;12.20;89.00
44431;DHT22;30135;47.866;-4.222;2023-04-25T09:42:26;12.30;88.80
44431;DHT22;30135;47.866;-4.222;2023-04-25T09:44:55;12.30;88.00
44431;DHT22;30135;47.866;-4.222;2023-04-25T09:47:26;12.30;88.40
44431;DHT22;30135;47.866;-4.222;2023-04-25T09:49:54;12.40;88.40
44431;DHT22;30135;47.866;-4.222;2023-04-25T09:52:24;12.40;88.40
44431;DHT22;30135;47.866;-4.222;2023-04-25T09:54:51;12.50;88.60
44431;DHT22;30135;47.866;-4.222;2023-04-25T09:57:20;12.50;88.10
44431;DHT22;30135;47.866;-4.222;2023-04-25T09:59:52;12.60;87.80
44431;DHT22;30135;47.866;-4.222;2023-04-25T10:02:23;12.60;87.10
44431;DHT22;30135;47.866;-4.222;2023-04-25T10:04:52;12.60;86.70
44431;DHT22;30135;47.866;-4.222;2023-04-25T10:07:22;12.60;86.30
44431;DHT22;30135;47.866;-4.222;2023-04-25T10:10:01;12.60;86.20
44431;DHT22;30135;47.866;-4.222;2023-04-25T10:12:29;12.60;86.20
44431;DHT22;30135;47.866;-4.222;2023-04-25T10:14:59;12.60;86.10
44431;DHT22;30135;47.866;-4.222;2023-04-25T10:17:28;12.60;86.20
44431;DHT22;30135;47.866;-4.222;2023-04-25T10:19:55;12.60;86.10
44431;DHT22;30135;47.866;-4.222;2023-04-25T10:22:34;12.60;85.80
44431;DHT22;30135;47.866;-4.222;2023-04-25T10:25:02;12.60;85.90
44431;DHT22;30135;47.866;-4.222;2023-04-25T10:27:30;12.60;86.00
44431;DHT22;30135;47.866;-4.222;2023-04-25T10:30:08;12.60;86.00
44431;DHT22;30135;47.866;-4.222;2023-04-25T10:32:43;12.70;86.00
44431;DHT22;30135;47.866;-4.222;2023-04-25T10:37:38;12.70;86.30
44431;DHT22;30135;47.866;-4.222;2023-04-25T10:40:10;12.80;86.60
44431;DHT22;30135;47.866;-4.222;2023-04-25T10:42:37;12.80;86.00
44431;DHT22;30135;47.866;-4.222;2023-04-25T10:45:07;12.90;85.80
44431;DHT22;30135;47.866;-4.222;2023-04-25T10:47:43;12.90;85.00
44431;DHT22;30135;47.866;-4.222;2023-04-25T10:50:16;12.90;85.10
44431;DHT22;30135;47.866;-4.222;2023-04-25T10:52:42;12.90;84.90
44431;DHT22;30135;47.866;-4.222;2023-04-25T10:55:10;13.00;84.80
44431;DHT22;30135;47.866;-4.222;2023-04-25T10:57:39;13.00;84.60
44431;DHT22;30135;47.866;-4.222;2023-04-25T11:00:16;13.00;84.70
44431;DHT22;30135;47.866;-4.222;2023-04-25T11:02:52;13.10;84.20
44431;DHT22;30135;47.866;-4.222;2023-04-25T11:05:32;13.10;83.60
44431;DHT22;30135;47.866;-4.222;2023-04-25T11:08:03;13.10;83.50
44431;DHT22;30135;47.866;-4.222;2023-04-25T11:10:36;13.10;83.80
44431;DHT22;30135;47.866;-4.222;2023-04-25T11:13:08;13.20;84.00
44431;DHT22;30135;47.866;-4.222;2023-04-25T11:15:34;13.20;83.40
44431;DHT22;30135;47.866;-4.222;2023-04-25T11:18:00;13.20;83.20
44431;DHT22;30135;47.866;-4.222;2023-04-25T11:20:26;13.10;83.00
44431;DHT22;30135;47.866;-4.222;2023-04-25T11:22:57;13.20;83.20
44431;DHT22;30135;47.866;-4.222;2023-04-25T11:25:25;13.20;83.00
44431;DHT22;30135;47.866;-4.222;2023-04-25T11:27:57;13.20;82.80
44431;DHT22;30135;47.866;-4.222;2023-04-25T11:30:25;13.20;82.90
44431;DHT22;30135;47.866;-4.222;2023-04-25T11:32:51;13.20;83.00
44431;DHT22;30135;47.866;-4.222;2023-04-25T11:35:19;13.20;82.80
44431;DHT22;30135;47.866;-4.222;2023-04-25T11:37:46;13.20;82.80
44431;DHT22;30135;47.866;-4.222;2023-04-25T11:40:12;13.20;82.80
44431;DHT22;30135;47.866;-4.222;2023-04-25T11:42:41;13.20;82.80
44431;DHT22;30135;47.866;-4.222;2023-04-25T11:45:10;13.20;83.00
44431;DHT22;30135;47.866;-4.222;2023-04-25T11:47:36;13.20;82.80
44431;DHT22;30135;47.866;-4.222;2023-04-25T11:50:04;13.20;83.40
44431;DHT22;30135;47.866;-4.222;2023-04-25T11:52:45;13.20;82.70
44431;DHT22;30135;47.866;-4.222;2023-04-25T11:55:16;13.20;83.00
44431;DHT22;30135;47.866;-4.222;2023-04-25T11:57:45;13.20;83.10
44431;DHT22;30135;47.866;-4.222;2023-04-25T12:00:17;13.20;83.90
44431;DHT22;30135;47.866;-4.222;2023-04-25T12:02:54;13.20;83.20
44431;DHT22;30135;47.866;-4.222;2023-04-25T12:05:25;13.30;83.40
44431;DHT22;30135;47.866;-4.222;2023-04-25T12:07:52;13.30;83.60
44431;DHT22;30135;47.866;-4.222;2023-04-25T12:10:19;13.20;83.30
44431;DHT22;30135;47.866;-4.222;2023-04-25T12:12:47;13.20;83.20
44431;DHT22;30135;47.866;-4.222;2023-04-25T12:15:25;13.20;83.10
44431;DHT22;30135;47.866;-4.222;2023-04-25T12:17:53;13.20;83.00
44431;DHT22;30135;47.866;-4.222;2023-04-25T12:20:26;13.20;83.00
44431;DHT22;30135;47.866;-4.222;2023-04-25T12:22:53;13.20;83.00
44431;DHT22;30135;47.866;-4.222;2023-04-25T12:25:39;13.10;82.90
44431;DHT22;30135;47.866;-4.222;2023-04-25T12:28:14;13.10;83.00
44431;DHT22;30135;47.866;-4.222;2023-04-25T12:33:35;13.10;83.60
44431;DHT22;30135;47.866;-4.222;2023-04-25T12:36:03;13.00;83.70
44431;DHT22;30135;47.866;-4.222;2023-04-25T12:38:39;13.00;84.00
44431;DHT22;30135;47.866;-4.222;2023-04-25T12:41:06;13.00;84.40
44431;DHT22;30135;47.866;-4.222;2023-04-25T12:43:32;13.00;84.60
44431;DHT22;30135;47.866;-4.222;2023-04-25T12:45:58;13.00;85.00
44431;DHT22;30135;47.866;-4.222;2023-04-25T12:48:25;13.00;85.40
44431;DHT22;30135;47.866;-4.222;2023-04-25T12:50:51;13.00;85.70
44431;DHT22;30135;47.866;-4.222;2023-04-25T12:53:19;13.00;85.90
44431;DHT22;30135;47.866;-4.222;2023-04-25T12:55:46;13.00;86.20
44431;DHT22;30135;47.866;-4.222;2023-04-25T12:58:18;12.90;86.40
44431;DHT22;30135;47.866;-4.222;2023-04-25T13:00:46;13.00;86.60
44431;DHT22;30135;47.866;-4.222;2023-04-25T13:03:12;12.90;86.40
44431;DHT22;30135;47.866;-4.222;2023-04-25T13:05:38;12.90;86.60
44431;DHT22;30135;47.866;-4.222;2023-04-25T13:08:04;12.90;86.50
44431;DHT22;30135;47.866;-4.222;2023-04-25T13:10:31;12.90;86.70
44431;DHT22;30135;47.866;-4.222;2023-04-25T13:13:02;12.80;86.70
44431;DHT22;30135;47.866;-4.222;2023-04-25T13:15:28;12.90;86.80
44431;DHT22;30135;47.866;-4.222;2023-04-25T13:17:54;12.80;86.70
44431;DHT22;30135;47.866;-4.222;2023-04-25T13:20:21;12.80;87.00
44431;DHT22;30135;47.866;-4.222;2023-04-25T13:22:47;12.80;87.00
44431;DHT22;30135;47.866;-4.222;2023-04-25T13:25:13;12.90;87.10
44431;DHT22;30135;47.866;-4.222;2023-04-25T13:27:39;12.80;87.00
44431;DHT22;30135;47.866;-4.222;2023-04-25T13:30:06;12.90;87.10
44431;DHT22;30135;47.866;-4.222;2023-04-25T13:32:36;12.90;87.30
44431;DHT22;30135;47.866;-4.222;2023-04-25T13:35:04;12.90;87.50
44431;DHT22;30135;47.866;-4.222;2023-04-25T13:37:31;12.90;87.90
44431;DHT22;30135;47.866;-4.222;2023-04-25T13:40:02;12.90;88.00
44431;DHT22;30135;47.866;-4.222;2023-04-25T13:42:33;12.90;88.50
44431;DHT22;30135;47.866;-4.222;2023-04-25T13:44:59;12.90;88.70
44431;DHT22;30135;47.866;-4.222;2023-04-25T13:47:26;12.90;88.90
44431;DHT22;30135;47.866;-4.222;2023-04-25T13:49:52;12.90;88.90
44431;DHT22;30135;47.866;-4.222;2023-04-25T13:52:19;12.90;88.90
44431;DHT22;30135;47.866;-4.222;2023-04-25T13:54:45;13.00;89.40
44431;DHT22;30135;47.866;-4.222;2023-04-25T13:57:12;12.90;89.70
44431;DHT22;30135;47.866;-4.222;2023-04-25T13:59:38;13.00;89.30
44431;DHT22;30135;47.866;-4.222;2023-04-25T14:02:06;13.00;89.10
44431;DHT22;30135;47.866;-4.222;2023-04-25T14:04:33;12.90;89.00
44431;DHT22;30135;47.866;-4.222;2023-04-25T14:06:59;13.00;89.00
44431;DHT22;30135;47.866;-4.222;2023-04-25T14:09:25;13.00;88.70
44431;DHT22;30135;47.866;-4.222;2023-04-25T14:11:53;13.00;88.50
44431;DHT22;30135;47.866;-4.222;2023-04-25T14:14:20;13.00;88.30
44431;DHT22;30135;47.866;-4.222;2023-04-25T14:16:47;13.00;88.20
44431;DHT22;30135;47.866;-4.222;2023-04-25T14:19:14;13.00;87.90
44431;DHT22;30135;47.866;-4.222;2023-04-25T14:21:40;13.00;87.60
44431;DHT22;30135;47.866;-4.222;2023-04-25T14:24:07;13.00;87.60
44431;DHT22;30135;47.866;-4.222;2023-04-25T14:26:34;13.00;87.60
44431;DHT22;30135;47.866;-4.222;2023-04-25T14:29:06;13.00;87.10
44431;DHT22;30135;47.866;-4.222;2023-04-25T14:31:33;13.00;86.90
44431;DHT22;30135;47.866;-4.222;2023-04-25T14:33:59;13.10;86.80
44431;DHT22;30135;47.866;-4.222;2023-04-25T14:36:25;13.10;86.50
44431;DHT22;30135;47.866;-4.222;2023-04-25T14:38:52;13.10;87.00
44431;DHT22;30135;47.866;-4.222;2023-04-25T14:41:18;13.10;85.90
44431;DHT22;30135;47.866;-4.222;2023-04-25T14:43:44;13.10;85.70
44431;DHT22;30135;47.866;-4.222;2023-04-25T14:46:11;13.10;85.60
44431;DHT22;30135;47.866;-4.222;2023-04-25T14:48:37;13.10;85.60
44431;DHT22;30135;47.866;-4.222;2023-04-25T14:51:04;13.20;85.80
44431;DHT22;30135;47.866;-4.222;2023-04-25T14:53:31;13.20;85.50
44431;DHT22;30135;47.866;-4.222;2023-04-25T14:55:57;13.30;85.00
44431;DHT22;30135;47.866;-4.222;2023-04-25T14:58:23;13.30;84.70
44431;DHT22;30135;47.866;-4.222;2023-04-25T15:00:49;13.30;84.50
44431;DHT22;30135;47.866;-4.222;2023-04-25T15:03:16;13.30;84.30
44431;DHT22;30135;47.866;-4.222;2023-04-25T15:05:43;13.40;84.00
44431;DHT22;30135;47.866;-4.222;2023-04-25T15:08:09;13.40;83.30
44431;DHT22;30135;47.866;-4.222;2023-04-25T15:10:36;13.40;83.30
44431;DHT22;30135;47.866;-4.222;2023-04-25T15:13:03;13.40;83.00
44431;DHT22;30135;47.866;-4.222;2023-04-25T15:15:29;13.40;83.00
44431;DHT22;30135;47.866;-4.222;2023-04-25T15:17:57;13.40;82.90
44431;DHT22;30135;47.866;-4.222;2023-04-25T15:20:23;13.40;82.70
44431;DHT22;30135;47.866;-4.222;2023-04-25T15:22:49;13.40;82.70
44431;DHT22;30135;47.866;-4.222;2023-04-25T15:25:16;13.40;82.40
44431;DHT22;30135;47.866;-4.222;2023-04-25T15:27:45;13.40;82.50
44431;DHT22;30135;47.866;-4.222;2023-04-25T15:30:15;13.40;82.00